Time;durP1;ratioP1;P1;durP2;ratioP2;P2;SDS_P1;SDS_P2;PMS_P1;PMS_P2;Temp;Humidity;BMP_temperature;BMP_pressure;BME280_temperature;BME280_humidity;BME280_pressure;Samples;Min_cycle;Max_cycle;Signal;HPM_P1;HPM_P2
2024/01/22 00:01:43;;;;;;;;;;;26.10;2201.60;;;;;;4999783;28;20012;-84
2024/01/22 00:04:08;;;;;;;;;;;26.20;2201.60;;;;;;5018059;28;19909;-84
2024/01/22 00:06:38;;;;;;;;;;;26.10;2201.60;;;;;;5034904;28;19920;-88
2024/01/22 00:09:03;;;;;;;;;;;25.90;2201.60;;;;;;5012767;28;19928;-85
2024/01/22 00:11:29;;;;;;;;;;;25.60;2201.60;;;;;;5034951;28;20499;-86
2024/01/22 00:13:55;;;;;;;;;;;25.60;2201.60;;;;;;5034737;28;20003;-82
2024/01/22 00:16:21;;;;;;;;;;;25.60;2201.60;;;;;;5034683;28;19915;-80
2024/01/22 00:18:47;;;;;;;;;;;25.70;2201.60;;;;;;5017954;28;19986;-82
2024/01/22 00:21:13;;;;;;;;;;;25.70;2201.60;;;;;;5035463;28;19909;-86
2024/01/22 00:23:38;;;;;;;;;;;25.70;2201.60;;;;;;5017265;28;19921;-83
2024/01/22 00:26:04;;;;;;;;;;;25.60;2201.60;;;;;;5017666;28;19921;-82
2024/01/22 00:28:29;;;;;;;;;;;0.80;2201.60;;;;;;5017472;28;19913;-84
2024/01/22 00:30:55;;;;;;;;;;;0.70;2201.60;;;;;;5033945;28;20423;-83
2024/01/22 00:33:21;;;;;;;;;;;0.70;2201.60;;;;;;5017987;28;19956;-84
2024/01/22 00:35:46;;;;;;;;;;;0.70;2201.60;;;;;;5017776;28;20308;-83
2024/01/22 00:38:12;;;;;;;;;;;0.80;2201.60;;;;;;5018488;28;20323;-85
2024/01/22 00:40:37;;;;;;;;;;;0.90;2201.60;;;;;;5017782;28;19913;-81
2024/01/22 00:43:03;;;;;;;;;;;0.90;2201.60;;;;;;5016765;28;20357;-82
2024/01/22 00:45:29;;;;;;;;;;;25.60;2201.60;;;;;;5015964;28;19917;-79
2024/01/22 00:47:54;;;;;;;;;;;25.70;2201.60;;;;;;5024195;28;19917;-79
2024/01/22 00:50:20;;;;;;;;;;;25.80;2201.60;;;;;;4997555;28;20340;-81
2024/01/22 00:52:45;;;;;;;;;;;26.00;2201.60;;;;;;4998102;28;19996;-81
2024/01/22 00:55:11;;;;;;;;;;;26.10;2201.60;;;;;;4997426;28;20432;-80
2024/01/22 00:57:37;;;;;;;;;;;26.30;2201.60;;;;;;5013427;28;20016;-81
2024/01/22 01:00:04;;;;;;;;;;;26.40;2201.60;;;;;;5034182;28;19909;-82
2024/01/22 01:02:29;;;;;;;;;;;26.50;2201.60;;;;;;5033821;28;19916;-86
2024/01/22 01:04:55;;;;;;;;;;;26.50;2201.60;;;;;;5033403;28;19917;-87
2024/01/22 01:07:21;;;;;;;;;;;26.50;2201.60;;;;;;5017280;28;19909;-86
2024/01/22 01:09:46;;;;;;;;;;;26.50;2201.60;;;;;;5017491;28;19955;-87
2024/01/22 01:12:12;;;;;;;;;;;51.40;2227.20;;;;;;5017893;28;19915;-86
2024/01/22 01:14:38;;;;;;;;;;;51.20;2227.20;;;;;;5017181;28;19910;-87
2024/01/22 01:17:03;;;;;;;;;;;51.30;2227.20;;;;;;5034630;28;19950;-86
2024/01/22 01:19:29;;;;;;;;;;;51.20;2227.20;;;;;;5017056;28;19920;-87
2024/01/22 01:21:55;;;;;;;;;;;26.50;2201.60;;;;;;5006896;28;19909;-80
2024/01/22 01:24:20;;;;;;;;;;;26.40;2201.60;;;;;;5045468;28;20008;-82
2024/01/22 01:26:47;;;;;;;;;;;26.20;2201.60;;;;;;5016826;28;19913;-83
2024/01/22 01:29:12;;;;;;;;;;;26.10;2201.60;;;;;;5004101;28;19916;-86
2024/01/22 01:31:38;;;;;;;;;;;25.90;2201.60;;;;;;5017612;28;19913;-79
2024/01/22 01:34:04;;;;;;;;;;;25.80;2201.60;;;;;;5034028;28;20280;-80
2024/01/22 01:36:29;;;;;;;;;;;25.90;2201.60;;;;;;5019711;28;20366;-88
2024/01/22 01:38:55;;;;;;;;;;;25.90;2201.60;;;;;;5047886;28;19925;-78
2024/01/22 01:41:20;;;;;;;;;;;25.90;2201.60;;;;;;5058366;28;19897;-83
2024/01/22 01:43:46;;;;;;;;;;;25.90;2201.60;;;;;;5031148;28;19917;-86
2024/01/22 01:46:12;;;;;;;;;;;25.70;2201.60;;;;;;5016996;28;19955;-88
2024/01/22 01:48:38;;;;;;;;;;;0.90;2201.60;;;;;;5017149;28;19909;-86
2024/01/22 01:51:04;;;;;;;;;;;0.70;2201.60;;;;;;5034673;28;20288;-86
2024/01/22 01:53:29;;;;;;;;;;;0.60;2201.60;;;;;;5017285;28;19909;-87
2024/01/22 01:55:56;;;;;;;;;;;0.50;2201.60;;;;;;5016795;28;19964;-87
2024/01/22 01:58:22;;;;;;;;;;;0.40;2201.60;;;;;;5017138;28;19924;-87
2024/01/22 02:00:49;;;;;;;;;;;0.50;2201.60;;;;;;5050182;28;20031;-87
2024/01/22 02:03:14;;;;;;;;;;;0.40;2201.60;;;;;;5050126;28;19937;-86
2024/01/22 02:05:40;;;;;;;;;;;0.30;2201.60;;;;;;5034420;28;19976;-87
2024/01/22 02:08:06;;;;;;;;;;;0.20;2201.60;;;;;;5034413;28;19917;-86
2024/01/22 02:10:31;;;;;;;;;;;0.40;2201.60;;;;;;5034392;28;19971;-87
2024/01/22 02:12:57;;;;;;;;;;;0.40;2201.60;;;;;;5016911;28;19913;-85
2024/01/22 02:15:23;;;;;;;;;;;0.40;2201.60;;;;;;5016695;28;19992;-87
2024/01/22 02:17:48;;;;;;;;;;;0.50;2201.60;;;;;;5016493;28;19917;-87
2024/01/22 02:20:14;;;;;;;;;;;0.50;2201.60;;;;;;5016867;28;20000;-88
2024/01/22 02:22:40;;;;;;;;;;;0.50;2201.60;;;;;;5049528;28;19992;-86
2024/01/22 02:25:05;;;;;;;;;;;0.40;2201.60;;;;;;5016350;28;19921;-86
2024/01/22 02:27:31;;;;;;;;;;;0.60;2201.60;;;;;;5016676;28;19909;-87
2024/01/22 02:29:57;;;;;;;;;;;0.50;2201.60;;;;;;5016758;28;20008;-86
2024/01/22 02:32:22;;;;;;;;;;;0.40;2201.60;;;;;;5015974;28;19909;-88
2024/01/22 02:34:48;;;;;;;;;;;0.30;2201.60;;;;;;5033342;28;19916;-87
2024/01/22 02:37:15;;;;;;;;;;;0.30;2201.60;;;;;;5031922;28;20258;-87
2024/01/22 02:39:41;;;;;;;;;;;0.40;2201.60;;;;;;5037737;28;19910;-87
2024/01/22 02:42:06;;;;;;;;;;;0.30;2201.60;;;;;;5020267;28;19967;-85
2024/01/22 02:44:34;;;;;;;;;;;0.30;2201.60;;;;;;5020057;28;19909;-88
2024/01/22 02:47:00;;;;;;;;;;;0.40;2201.60;;;;;;5019798;28;20288;-87
2024/01/22 02:49:26;;;;;;;;;;;0.40;2201.60;;;;;;5020085;28;20005;-87
2024/01/22 02:51:52;;;;;;;;;;;0.30;2201.60;;;;;;5017738;28;19909;-86
2024/01/22 02:54:18;;;;;;;;;;;0.40;2201.60;;;;;;5008492;28;20007;-87
2024/01/22 02:56:43;;;;;;;;;;;0.30;2201.60;;;;;;5019572;28;19921;-88
2024/01/22 02:59:09;;;;;;;;;;;0.30;2201.60;;;;;;5019626;28;20289;-86
2024/01/22 03:01:34;;;;;;;;;;;0.40;2201.60;;;;;;5019183;28;19910;-88
2024/01/22 03:04:00;;;;;;;;;;;0.50;2201.60;;;;;;5019505;28;20361;-88
2024/01/22 03:06:26;;;;;;;;;;;0.50;2201.60;;;;;;5051361;28;19913;-88
2024/01/22 03:08:51;;;;;;;;;;;0.50;2201.60;;;;;;5019467;28;19913;-88
2024/01/22 03:11:18;;;;;;;;;;;0.40;2201.60;;;;;;5018172;28;19909;-87
2024/01/22 03:13:44;;;;;;;;;;;0.40;2201.60;;;;;;5008204;28;19909;-86
2024/01/22 03:16:09;;;;;;;;;;;0.40;2201.60;;;;;;5035268;28;19956;-87
2024/01/22 03:18:35;;;;;;;;;;;0.40;2201.60;;;;;;5019256;28;20080;-86
2024/01/22 03:21:01;;;;;;;;;;;0.30;2201.60;;;;;;5017931;28;19910;-87
2024/01/22 03:23:27;;;;;;;;;;;0.20;2201.60;;;;;;5024976;28;20345;-87
2024/01/22 03:25:52;;;;;;;;;;;0.10;2201.60;;;;;;5019075;28;19967;-86
2024/01/22 03:28:18;;;;;;;;;;;0.20;2201.60;;;;;;5036534;28;19913;-86
2024/01/22 03:30:44;;;;;;;;;;;0.20;2201.60;;;;;;5018991;28;19909;-86
2024/01/22 03:33:09;;;;;;;;;;;0.10;2201.60;;;;;;5051927;28;20297;-88
2024/01/22 03:35:35;;;;;;;;;;;12.90;2201.60;;;;;;5019006;28;20353;-85
2024/01/22 03:38:00;;;;;;;;;;;13.00;2201.60;;;;;;5018960;28;19917;-88
2024/01/22 03:40:26;;;;;;;;;;;13.10;2201.60;;;;;;5019154;28;19917;-88
2024/01/22 03:42:51;;;;;;;;;;;13.10;2201.60;;;;;;5015550;28;19938;-88
2024/01/22 03:45:17;;;;;;;;;;;13.20;2201.60;;;;;;5011571;28;19932;-88
2024/01/22 03:47:43;;;;;;;;;;;13.10;2201.60;;;;;;5018274;28;19910;-88
2024/01/22 03:50:10;;;;;;;;;;;13.10;2201.60;;;;;;5018901;28;20308;-87
2024/01/22 03:52:35;;;;;;;;;;;13.00;2201.60;;;;;;5018698;28;20380;-87
2024/01/22 03:55:02;;;;;;;;;;;13.10;2201.60;;;;;;5018559;28;19925;-88
2024/01/22 03:57:27;;;;;;;;;;;13.10;2201.60;;;;;;5022954;28;19917;-88
2024/01/22 03:59:53;;;;;;;;;;;13.00;2201.60;;;;;;5022732;28;19955;-88
2024/01/22 04:02:19;;;;;;;;;;;13.00;2201.60;;;;;;5011403;28;20003;-87
2024/01/22 04:04:44;;;;;;;;;;;13.00;2201.60;;;;;;5045027;28;19909;-84
2024/01/22 04:07:10;;;;;;;;;;;13.10;2201.60;;;;;;5018597;28;19973;-88
2024/01/22 04:09:36;;;;;;;;;;;12.90;2201.60;;;;;;5017863;28;19913;-88
2024/01/22 04:12:03;;;;;;;;;;;13.00;2201.60;;;;;;5018472;28;19916;-87
2024/01/22 04:14:29;;;;;;;;;;;0.00;2201.60;;;;;;5022576;28;19916;-88
2024/01/22 04:16:55;;;;;;;;;;;0.00;2201.60;;;;;;5017952;28;19909;-88
2024/01/22 04:19:20;;;;;;;;;;;0.10;2201.60;;;;;;5017847;28;19913;-87
2024/01/22 04:21:46;;;;;;;;;;;0.10;2201.60;;;;;;5005395;28;19920;-87
2024/01/22 04:24:12;;;;;;;;;;;0.10;2201.60;;;;;;5035450;28;19955;-88
2024/01/22 04:26:38;;;;;;;;;;;0.60;2201.60;;;;;;5018046;28;19932;-88
2024/01/22 04:29:03;;;;;;;;;;;13.00;2201.60;;;;;;5017845;28;19909;-88
2024/01/22 04:31:29;;;;;;;;;;;13.20;2201.60;;;;;;5017897;28;19909;-87
2024/01/22 04:33:55;;;;;;;;;;;13.20;2201.60;;;;;;5018272;28;19909;-86
2024/01/22 04:36:21;;;;;;;;;;;13.30;2201.60;;;;;;5017962;28;20326;-88
2024/01/22 04:38:46;;;;;;;;;;;13.00;2201.60;;;;;;5017618;28;19927;-89
2024/01/22 04:41:12;;;;;;;;;;;13.20;2201.60;;;;;;5017332;28;20376;-88
2024/01/22 04:43:37;;;;;;;;;;;13.20;2201.60;;;;;;5051170;28;19909;-87
2024/01/22 04:46:03;;;;;;;;;;;13.20;2201.60;;;;;;5017742;28;19958;-87
2024/01/22 04:48:29;;;;;;;;;;;13.20;2201.60;;;;;;5018081;28;19963;-88
2024/01/22 04:50:54;;;;;;;;;;;13.10;2201.60;;;;;;5017981;28;20320;-89
2024/01/22 04:53:20;;;;;;;;;;;13.00;2201.60;;;;;;5017881;28;19915;-88
2024/01/22 04:55:46;;;;;;;;;;;13.00;2201.60;;;;;;5017247;28;20375;-86
2024/01/22 04:58:11;;;;;;;;;;;13.00;2201.60;;;;;;5005260;28;19917;-89
2024/01/22 05:00:37;;;;;;;;;;;13.00;2201.60;;;;;;5061384;28;20276;-83
2024/01/22 05:03:04;;;;;;;;;;;12.90;2201.60;;;;;;5029939;28;19893;-88
2024/01/22 05:05:31;;;;;;;;;;;12.90;2201.60;;;;;;5037896;28;19947;-79
2024/01/22 05:07:57;;;;;;;;;;;13.00;2201.60;;;;;;5040298;28;20025;-85
2024/01/22 05:10:22;;;;;;;;;;;13.10;2201.60;;;;;;5027740;28;19913;-89
2024/01/22 05:12:48;;;;;;;;;;;13.10;2201.60;;;;;;5017718;28;20375;-89
2024/01/22 05:15:14;;;;;;;;;;;13.30;2201.60;;;;;;5013966;28;19910;-87
2024/01/22 05:17:39;;;;;;;;;;;13.20;2201.60;;;;;;5028055;28;19922;-87
2024/01/22 05:20:06;;;;;;;;;;;13.20;2201.60;;;;;;5050318;28;19911;-86
2024/01/22 05:22:33;;;;;;;;;;;13.20;2201.60;;;;;;5034462;28;19915;-87
2024/01/22 05:25:00;;;;;;;;;;;13.40;2201.60;;;;;;5011015;28;19917;-88
2024/01/22 05:27:25;;;;;;;;;;;13.30;2201.60;;;;;;5043718;28;20424;-89
2024/01/22 05:29:51;;;;;;;;;;;13.50;2201.60;;;;;;5033764;28;19955;-88
2024/01/22 05:32:16;;;;;;;;;;;13.50;2201.60;;;;;;5033396;28;19909;-87
2024/01/22 05:34:42;;;;;;;;;;;13.40;2201.60;;;;;;5017144;28;19913;-83
2024/01/22 05:37:08;;;;;;;;;;;13.50;2201.60;;;;;;5017106;28;19975;-88
2024/01/22 05:39:33;;;;;;;;;;;13.40;2201.60;;;;;;5010719;28;19920;-89
2024/01/22 05:41:59;;;;;;;;;;;13.30;2201.60;;;;;;5016515;28;19917;-86
2024/01/22 05:44:25;;;;;;;;;;;13.30;2201.60;;;;;;5016420;28;19909;-89
2024/01/22 05:46:51;;;;;;;;;;;13.30;2201.60;;;;;;5015350;28;19913;-87
2024/01/22 05:49:18;;;;;;;;;;;13.20;2201.60;;;;;;5044901;28;19955;-83
2024/01/22 05:51:44;;;;;;;;;;;12.90;2201.60;;;;;;5016057;28;19915;-83
2024/01/22 05:54:10;;;;;;;;;;;13.40;2201.60;;;;;;5010870;28;20288;-86
2024/01/22 05:56:35;;;;;;;;;;;13.30;2201.60;;;;;;5015353;28;19925;-84
2024/01/22 05:59:01;;;;;;;;;;;13.50;2201.60;;;;;;5003991;28;19921;-78
2024/01/22 06:01:29;;;;;;;;;;;13.60;2201.60;;;;;;5016317;28;19909;-79
2024/01/22 06:03:54;;;;;;;;;;;13.60;2201.60;;;;;;5032508;28;19909;-87
2024/01/22 06:06:20;;;;;;;;;;;13.50;2201.60;;;;;;5042787;28;20358;-84
2024/01/22 06:08:47;;;;;;;;;;;13.50;2201.60;;;;;;5009586;28;20075;-83
2024/01/22 06:11:12;;;;;;;;;;;13.60;2201.60;;;;;;5013593;28;20371;-81
2024/01/22 06:13:39;;;;;;;;;;;13.60;2201.60;;;;;;5030317;28;19910;-81
2024/01/22 06:16:09;;;;;;;;;;;13.60;2201.60;;;;;;5037349;28;19917;-81
2024/01/22 06:18:35;;;;;;;;;;;13.60;2201.60;;;;;;5021619;28;19917;-81
2024/01/22 06:21:00;;;;;;;;;;;13.70;2201.60;;;;;;5015847;28;20365;-79
2024/01/22 06:23:26;;;;;;;;;;;13.60;2201.60;;;;;;5035984;28;19967;-80
2024/01/22 06:25:52;;;;;;;;;;;38.40;2201.60;;;;;;5036870;28;19923;-80
2024/01/22 06:28:17;;;;;;;;;;;38.40;2201.60;;;;;;5014926;28;19909;-79
2024/01/22 06:30:43;;;;;;;;;;;38.50;2201.60;;;;;;5018610;28;20368;-82
2024/01/22 06:33:09;;;;;;;;;;;38.50;2201.60;;;;;;5011880;28;19942;-83
2024/01/22 06:35:34;;;;;;;;;;;38.60;2201.60;;;;;;5013548;28;20353;-81
2024/01/22 06:38:00;;;;;;;;;;;38.70;2201.60;;;;;;5030629;28;19917;-82
2024/01/22 06:40:26;;;;;;;;;;;38.60;2201.60;;;;;;5019394;28;19959;-80
2024/01/22 06:42:51;;;;;;;;;;;38.50;2201.60;;;;;;5018462;28;19909;-83
2024/01/22 06:45:17;;;;;;;;;;;13.70;2201.60;;;;;;5028538;28;19917;-83
2024/01/22 06:47:42;;;;;;;;;;;13.50;2201.60;;;;;;5017054;28;19909;-82
2024/01/22 06:50:08;;;;;;;;;;;13.40;2201.60;;;;;;5005962;28;19980;-78
2024/01/22 06:52:36;;;;;;;;;;;13.20;2201.60;;;;;;5016866;28;19910;-79
2024/01/22 06:55:02;;;;;;;;;;;13.00;2201.60;;;;;;5016322;28;19929;-80
2024/01/22 06:57:28;;;;;;;;;;;12.90;2201.60;;;;;;5045752;28;19917;-79
2024/01/22 06:59:55;;;;;;;;;;;13.00;2201.60;;;;;;5033343;28;19910;-79
2024/01/22 07:02:22;;;;;;;;;;;13.10;2201.60;;;;;;5003858;28;19909;-82
2024/01/22 07:04:47;;;;;;;;;;;13.00;2201.60;;;;;;5036538;28;19971;-82
2024/01/22 07:07:13;;;;;;;;;;;13.00;2201.60;;;;;;5040647;28;19929;-76
2024/01/22 07:09:39;;;;;;;;;;;12.90;2201.60;;;;;;5023532;28;19913;-77
2024/01/22 07:12:05;;;;;;;;;;;0.00;2201.60;;;;;;5039542;28;19909;-80
2024/01/22 07:14:30;;;;;;;;;;;0.00;2201.60;;;;;;5043395;28;19917;-78
2024/01/22 07:16:56;;;;;;;;;;;0.00;2201.60;;;;;;5024214;28;19913;-85
2024/01/22 07:19:22;;;;;;;;;;;0.00;2201.60;;;;;;5024863;28;19916;-80
2024/01/22 07:21:47;;;;;;;;;;;0.10;2201.60;;;;;;5012000;28;20309;-79
2024/01/22 07:24:13;;;;;;;;;;;0.10;2201.60;;;;;;5018310;28;19909;-80
2024/01/22 07:26:38;;;;;;;;;;;0.00;2201.60;;;;;;5018641;28;19913;-82
2024/01/22 07:29:04;;;;;;;;;;;0.20;2201.60;;;;;;5009319;28;19909;-83
2024/01/22 07:31:30;;;;;;;;;;;0.10;2201.60;;;;;;5018341;28;19915;-84
2024/01/22 07:33:55;;;;;;;;;;;0.30;2201.60;;;;;;5020630;28;19974;-85
2024/01/22 07:36:21;;;;;;;;;;;0.20;2201.60;;;;;;5033443;28;19913;-83
2024/01/22 07:38:47;;;;;;;;;;;0.40;2201.60;;;;;;5017230;28;19983;-82
2024/01/22 07:41:13;;;;;;;;;;;0.30;2201.60;;;;;;5017129;28;19909;-81
2024/01/22 07:43:39;;;;;;;;;;;0.40;2201.60;;;;;;5015399;28;19909;-81
2024/01/22 07:46:05;;;;;;;;;;;0.50;2201.60;;;;;;5016594;28;19963;-82
2024/01/22 07:48:30;;;;;;;;;;;0.70;2201.60;;;;;;5014381;28;19971;-83
2024/01/22 07:50:56;;;;;;;;;;;0.70;2201.60;;;;;;5009195;28;20012;-86
2024/01/22 07:53:22;;;;;;;;;;;0.90;2201.60;;;;;;5018027;28;19948;-78
2024/01/22 07:55:47;;;;;;;;;;;26.40;2201.60;;;;;;5041300;28;20401;-81
2024/01/22 07:58:14;;;;;;;;;;;0.90;2201.60;;;;;;5019379;28;19995;-86
2024/01/22 08:00:40;;;;;;;;;;;0.90;2201.60;;;;;;5011875;28;20352;-82
2024/01/22 08:03:06;;;;;;;;;;;0.90;2201.60;;;;;;5023363;28;19939;-82
2024/01/22 08:05:31;;;;;;;;;;;0.70;2201.60;;;;;;5020439;28;19913;-81
2024/01/22 08:07:57;;;;;;;;;;;0.70;2201.60;;;;;;5029766;28;19913;-86
2024/01/22 08:10:23;;;;;;;;;;;0.60;2201.60;;;;;;5035118;28;19928;-80
2024/01/22 08:12:49;;;;;;;;;;;0.80;2201.60;;;;;;5038978;28;19939;-84
2024/01/22 08:15:15;;;;;;;;;;;0.90;2201.60;;;;;;5030941;28;19910;-82
2024/01/22 08:17:45;;;;;;;;;;;0.90;2201.60;;;;;;5032608;28;20270;-81
2024/01/22 08:20:12;;;;;;;;;;;25.60;2201.60;;;;;;5017776;28;19909;-77
2024/01/22 08:22:38;;;;;;;;;;;25.70;2201.60;;;;;;5049799;28;20005;-79
2024/01/22 08:25:04;;;;;;;;;;;25.70;2201.60;;;;;;5013625;28;20020;-80
2024/01/22 08:27:29;;;;;;;;;;;25.70;2201.60;;;;;;5031446;28;19960;-77
2024/01/22 08:29:55;;;;;;;;;;;25.80;2201.60;;;;;;5021818;28;19979;-82
2024/01/22 08:32:21;;;;;;;;;;;25.80;2201.60;;;;;;5017577;28;20000;-80
2024/01/22 08:34:46;;;;;;;;;;;25.80;2201.60;;;;;;5016739;28;20438;-80
2024/01/22 08:37:12;;;;;;;;;;;25.90;2201.60;;;;;;5033289;28;19916;-81
2024/01/22 08:39:37;;;;;;;;;;;26.10;2201.60;;;;;;5016540;28;20367;-81
2024/01/22 08:42:03;;;;;;;;;;;26.10;2201.60;;;;;;5013714;28;20340;-78
2024/01/22 08:44:29;;;;;;;;;;;26.00;2201.60;;;;;;5009593;28;19909;-81
2024/01/22 08:46:54;;;;;;;;;;;26.00;2201.60;;;;;;5016627;28;19917;-82
2024/01/22 08:49:20;;;;;;;;;;;25.90;2201.60;;;;;;5017189;28;19909;-83
2024/01/22 08:51:46;;;;;;;;;;;26.10;2201.60;;;;;;5018895;28;19964;-81
2024/01/22 08:54:11;;;;;;;;;;;26.20;2201.60;;;;;;5027615;28;19932;-78
2024/01/22 08:56:37;;;;;;;;;;;26.40;2201.60;;;;;;5015667;28;20285;-79
2024/01/22 08:59:02;;;;;;;;;;;51.20;2227.20;;;;;;5015947;28;19964;-80
2024/01/22 09:01:31;;;;;;;;;;;51.30;2227.20;;;;;;5015540;28;20224;-80
2024/01/22 09:03:57;;;;;;;;;;;51.40;2227.20;;;;;;5013784;28;20000;-80
2024/01/22 09:06:22;;;;;;;;;;;51.30;2227.20;;;;;;5015837;28;19916;-79
2024/01/22 09:08:48;;;;;;;;;;;51.40;2227.20;;;;;;5016248;28;19948;-80
2024/01/22 09:11:14;;;;;;;;;;;51.30;2227.20;;;;;;5032008;28;19963;-82
2024/01/22 09:13:39;;;;;;;;;;;51.30;2227.20;;;;;;5034138;28;19913;-79
2024/01/22 09:16:05;;;;;;;;;;;51.20;2227.20;;;;;;5010249;28;19910;-84
2024/01/22 09:18:31;;;;;;;;;;;51.20;2227.20;;;;;;5013653;28;19923;-84
2024/01/22 09:20:56;;;;;;;;;;;51.50;2227.20;;;;;;5016035;28;19945;-84
2024/01/22 09:23:22;;;;;;;;;;;51.60;2227.20;;;;;;5009421;28;19910;-84
2024/01/22 09:25:48;;;;;;;;;;;51.80;2227.20;;;;;;5012941;28;19914;-86
2024/01/22 09:28:18;;;;;;;;;;;51.90;2227.20;;;;;;5024207;28;19918;-78
2024/01/22 09:30:44;;;;;;;;;;;51.90;2227.20;;;;;;5053168;28;19909;-78
2024/01/22 09:33:09;;;;;;;;;;;51.90;2227.20;;;;;;5027522;28;19963;-85
2024/01/22 09:35:36;;;;;;;;;;;51.90;2227.20;;;;;;5011773;28;19913;-79
2024/01/22 09:38:01;;;;;;;;;;;76.90;2227.20;;;;;;5024400;28;20327;-83
2024/01/22 09:40:30;;;;;;;;;;;77.20;2227.20;;;;;;5016280;28;19959;-81
2024/01/22 09:42:58;;;;;;;;;;;77.30;2227.20;;;;;;5014061;28;19932;-83
2024/01/22 09:45:24;;;;;;;;;;;77.20;2227.20;;;;;;5020393;28;19916;-84
2024/01/22 09:47:50;;;;;;;;;;;77.40;2227.20;;;;;;5032938;28;19909;-84
2024/01/22 09:50:16;;;;;;;;;;;77.50;2227.20;;;;;;5018381;28;19916;-83
2024/01/22 09:52:44;;;;;;;;;;;77.60;2227.20;;;;;;5018802;28;19913;-80
2024/01/22 09:55:09;;;;;;;;;;;77.70;2227.20;;;;;;5029365;28;20028;-81
2024/01/22 09:57:36;;;;;;;;;;;77.70;2227.20;;;;;;5034455;28;19960;-81
2024/01/22 10:00:03;;;;;;;;;;;77.60;2227.20;;;;;;5037630;28;19956;-83
2024/01/22 10:02:28;;;;;;;;;;;102.50;2227.20;;;;;;5019662;28;20454;-80
2024/01/22 10:04:54;;;;;;;;;;;102.60;2227.20;;;;;;5010156;28;19913;-81
2024/01/22 10:07:20;;;;;;;;;;;102.70;2227.20;;;;;;5020298;28;19909;-82
2024/01/22 10:09:46;;;;;;;;;;;102.80;2227.20;;;;;;5019816;28;19909;-82
2024/01/22 10:12:12;;;;;;;;;;;103.10;2227.20;;;;;;5016964;28;20003;-80
2024/01/22 10:14:40;;;;;;;;;;;103.10;2227.20;;;;;;5035718;28;19956;-81
2024/01/22 10:17:16;;;;;;;;;;;103.20;2227.20;;;;;;5020089;28;19909;-82
2024/01/22 10:19:42;;;;;;;;;;;128.20;2252.80;;;;;;5018428;28;20012;-83
2024/01/22 10:22:08;;;;;;;;;;;128.00;2252.80;;;;;;5004268;28;19945;-82
2024/01/22 10:24:34;;;;;;;;;;;128.00;2252.80;;;;;;5027100;28;19952;-82
2024/01/22 10:27:12;;;;;;;;;;;128.40;2252.80;;;;;;5020059;28;20375;-84
2024/01/22 10:29:37;;;;;;;;;;;128.60;2252.80;;;;;;5010034;28;19910;-80
2024/01/22 10:32:03;;;;;;;;;;;128.80;2252.80;;;;;;5044198;28;19919;-82
2024/01/22 10:34:29;;;;;;;;;;;128.60;2252.80;;;;;;5022183;28;19936;-81
2024/01/22 10:37:07;;;;;;;;;;;153.90;2252.80;;;;;;5010362;28;20009;-82
2024/01/22 10:39:39;;;;;;;;;;;154.30;2252.80;;;;;;5019399;28;19917;-81
2024/01/22 10:42:11;;;;;;;;;;;154.10;2252.80;;;;;;5019830;28;19964;-82
2024/01/22 10:44:44;;;;;;;;;;;154.30;2252.80;;;;;;5018422;28;19913;-80
2024/01/22 10:47:16;;;;;;;;;;;154.00;2252.80;;;;;;5026492;28;19968;-81
2024/01/22 10:49:42;;;;;;;;;;;154.00;2252.80;;;;;;5008859;28;19920;-80
2024/01/22 10:52:09;;;;;;;;;;;154.00;2252.80;;;;;;5018636;28;19957;-81
2024/01/22 10:54:36;;;;;;;;;;;153.90;2252.80;;;;;;5029705;28;20288;-81
2024/01/22 10:57:03;;;;;;;;;;;153.80;2252.80;;;;;;5019112;28;19921;-82
2024/01/22 10:59:30;;;;;;;;;;;154.00;2252.80;;;;;;5028593;28;19924;-82
2024/01/22 11:01:56;;;;;;;;;;;153.80;2252.80;;;;;;5034700;28;20316;-80
2024/01/22 11:04:26;;;;;;;;;;;154.00;2252.80;;;;;;5047654;28;19963;-81
2024/01/22 11:06:53;;;;;;;;;;;154.10;2252.80;;;;;;5020580;28;19910;-82
2024/01/22 11:09:19;;;;;;;;;;;154.00;2252.80;;;;;;5008505;28;19909;-80
2024/01/22 11:11:46;;;;;;;;;;;154.20;2252.80;;;;;;5011540;28;19909;-80
2024/01/22 11:14:12;;;;;;;;;;;154.20;2252.80;;;;;;5015855;28;20004;-81
2024/01/22 11:16:38;;;;;;;;;;;154.50;2252.80;;;;;;5017892;28;19913;-81
2024/01/22 11:19:04;;;;;;;;;;;154.40;2252.80;;;;;;5016455;28;19918;-80
2024/01/22 11:21:37;;;;;;;;;;;154.40;2252.80;;;;;;5030969;28;19913;-80
2024/01/22 11:24:12;;;;;;;;;;;154.40;2252.80;;;;;;5026252;28;19944;-76
2024/01/22 11:26:41;;;;;;;;;;;154.40;2252.80;;;;;;5034817;28;20368;-78
2024/01/22 11:29:07;;;;;;;;;;;179.20;2252.80;;;;;;5031229;28;19935;-78
2024/01/22 11:31:37;;;;;;;;;;;154.40;2252.80;;;;;;5005825;28;19916;-77
2024/01/22 11:34:03;;;;;;;;;;;154.30;2252.80;;;;;;5016238;28;19954;-79
2024/01/22 11:36:47;;;;;;;;;;;154.50;2252.80;;;;;;5028221;28;20345;-78
2024/01/22 11:39:32;;;;;;;;;;;154.50;2252.80;;;;;;5035050;28;19928;-79
2024/01/22 11:42:20;;;;;;;;;;;154.40;2252.80;;;;;;5025608;28;19915;-78
2024/01/22 11:44:50;;;;;;;;;;;154.20;2252.80;;;;;;5031597;28;19909;-76
2024/01/22 11:47:20;;;;;;;;;;;179.40;2252.80;;;;;;5026283;28;20849;-75
2024/01/22 11:49:45;;;;;;;;;;;179.40;2252.80;;;;;;5029169;28;19909;-78
2024/01/22 11:52:11;;;;;;;;;;;179.30;2252.80;;;;;;5012731;28;20306;-79
2024/01/22 11:54:37;;;;;;;;;;;179.30;2252.80;;;;;;5025887;28;19913;-78
2024/01/22 11:57:03;;;;;;;;;;;179.40;2252.80;;;;;;5034539;28;19924;-77
2024/01/22 11:59:29;;;;;;;;;;;154.50;2252.80;;;;;;5015057;28;19917;-77
2024/01/22 12:02:09;;;;;;;;;;;154.30;2252.80;;;;;;5010149;28;20350;-77
2024/01/22 12:04:34;;;;;;;;;;;154.10;2252.80;;;;;;5014778;28;20418;-80
2024/01/22 12:07:00;;;;;;;;;;;154.00;2252.80;;;;;;5016682;28;19909;-77
2024/01/22 12:09:32;;;;;;;;;;;154.20;2252.80;;;;;;5032356;28;19916;-77
2024/01/22 12:12:02;;;;;;;;;;;154.30;2252.80;;;;;;5012356;28;19967;-76
2024/01/22 12:14:28;;;;;;;;;;;154.20;2252.80;;;;;;5016425;28;20391;-77
2024/01/22 12:17:03;;;;;;;;;;;154.10;2252.80;;;;;;5029137;28;19964;-77
2024/01/22 12:19:29;;;;;;;;;;;154.20;2252.80;;;;;;5029398;28;20064;-77
2024/01/22 12:21:55;;;;;;;;;;;154.20;2252.80;;;;;;5029937;28;20012;-77
2024/01/22 12:24:20;;;;;;;;;;;154.20;2252.80;;;;;;5016671;28;19955;-77
2024/01/22 12:26:46;;;;;;;;;;;153.80;2252.80;;;;;;5009753;28;20349;-77
2024/01/22 12:29:24;;;;;;;;;;;153.70;2252.80;;;;;;5015209;28;19952;-76
2024/01/22 12:32:10;;;;;;;;;;;128.90;2252.80;;;;;;5020568;28;19921;-77
2024/01/22 12:34:36;;;;;;;;;;;128.90;2252.80;;;;;;5039601;28;19912;-78
2024/01/22 12:37:18;;;;;;;;;;;153.60;2252.80;;;;;;5016423;28;20364;-77
2024/01/22 12:39:44;;;;;;;;;;;128.90;2252.80;;;;;;5038114;28;20419;-77
2024/01/22 12:42:19;;;;;;;;;;;128.70;2252.80;;;;;;5015943;28;19909;-78
2024/01/22 12:45:00;;;;;;;;;;;128.40;2252.80;;;;;;5009512;28;19909;-78
2024/01/22 12:47:28;;;;;;;;;;;128.50;2252.80;;;;;;5021766;28;19910;-78
2024/01/22 12:49:54;;;;;;;;;;;128.60;2252.80;;;;;;5009150;28;19909;-78
2024/01/22 12:52:21;;;;;;;;;;;128.60;2252.80;;;;;;5029335;28;19893;-76
2024/01/22 12:54:46;;;;;;;;;;;128.40;2252.80;;;;;;5049870;28;19925;-79
2024/01/22 12:57:12;;;;;;;;;;;128.40;2252.80;;;;;;5032111;28;20353;-77
2024/01/22 12:59:38;;;;;;;;;;;128.30;2252.80;;;;;;5016426;28;19909;-78
2024/01/22 13:02:03;;;;;;;;;;;128.40;2252.80;;;;;;5033641;28;19913;-78
2024/01/22 13:04:29;;;;;;;;;;;128.30;2252.80;;;;;;5015538;28;20043;-78
2024/01/22 13:06:54;;;;;;;;;;;128.40;2252.80;;;;;;5016177;28;20014;-79
2024/01/22 13:09:22;;;;;;;;;;;128.20;2252.80;;;;;;5016012;28;19916;-78
2024/01/22 13:11:48;;;;;;;;;;;128.30;2252.80;;;;;;5048459;28;20315;-81
2024/01/22 13:14:13;;;;;;;;;;;128.10;2252.80;;;;;;5016254;28;19909;-82
2024/01/22 13:16:39;;;;;;;;;;;128.20;2252.80;;;;;;5010449;28;19913;-83
2024/01/22 13:19:04;;;;;;;;;;;128.00;2252.80;;;;;;5015581;28;19940;-81
2024/01/22 13:21:30;;;;;;;;;;;128.20;2252.80;;;;;;5015455;28;20369;-77
2024/01/22 13:23:55;;;;;;;;;;;128.30;2252.80;;;;;;5014608;28;20012;-78
2024/01/22 13:26:22;;;;;;;;;;;128.10;2252.80;;;;;;5011050;28;19987;-78
2024/01/22 13:28:47;;;;;;;;;;;128.20;2252.80;;;;;;5014067;28;20368;-78
2024/01/22 13:31:13;;;;;;;;;;;128.00;2252.80;;;;;;5014868;28;19959;-77
2024/01/22 13:33:38;;;;;;;;;;;128.10;2252.80;;;;;;5026835;28;19916;-78
2024/01/22 13:36:04;;;;;;;;;;;103.30;2227.20;;;;;;5025195;28;20367;-78
2024/01/22 13:38:33;;;;;;;;;;;128.00;2252.80;;;;;;5013805;28;19925;-77
2024/01/22 13:41:02;;;;;;;;;;;128.10;2252.80;;;;;;5030206;28;19985;-77
2024/01/22 13:43:28;;;;;;;;;;;103.30;2227.20;;;;;;5032682;28;19916;-78
2024/01/22 13:45:54;;;;;;;;;;;103.30;2227.20;;;;;;5032126;28;19909;-77
2024/01/22 13:48:21;;;;;;;;;;;128.00;2252.80;;;;;;5030269;28;20408;-78